Time;durP1;ratioP1;P1;durP2;ratioP2;P2;SDS_P1;SDS_P2;PMS_P1;PMS_P2;Temp;Humidity;BMP_temperature;BMP_pressure;BME280_temperature;BME280_humidity;BME280_pressure;Samples;Min_cycle;Max_cycle;Signal;HPM_P1;HPM_P2
2021/01/04 00:00:10;;;;;;;7.03;5.63;;;4.90;99.90;;;;;;5072959;28;20418;-66
2021/01/04 00:02:48;;;;;;;8.97;6.53;;;4.90;99.90;;;;;;5072783;28;20419;-66
2021/01/04 00:05:23;;;;;;;7.43;6.47;;;4.90;99.90;;;;;;5072757;28;20428;-67
2021/01/04 00:07:48;;;;;;;7.30;6.60;;;4.90;99.90;;;;;;5072729;28;20513;-66
2021/01/04 00:10:29;;;;;;;9.27;7.47;;;4.90;99.90;;;;;;5072885;28;20503;-66
2021/01/04 00:12:56;;;;;;;7.17;6.47;;;4.90;99.90;;;;;;5072832;28;20599;-67
2021/01/04 00:15:47;;;;;;;6.83;6.13;;;4.80;99.90;;;;;;5072377;28;20878;-67
2021/01/04 00:18:40;;;;;;;8.27;6.83;;;4.80;99.90;;;;;;5052518;28;20479;-66
2021/01/04 00:21:27;;;;;;;7.43;6.67;;;4.80;99.90;;;;;;5052618;28;20487;-67
2021/01/04 00:24:10;;;;;;;8.53;6.83;;;4.90;99.90;;;;;;5052500;28;20428;-67
2021/01/04 00:27:00;;;;;;;7.20;6.50;;;4.90;99.90;;;;;;5052388;28;20415;-67
2021/01/04 00:29:26;;;;;;;7.93;5.90;;;4.90;99.90;;;;;;5052451;28;20875;-67
2021/01/04 00:31:59;;;;;;;7.33;6.50;;;5.00;99.90;;;;;;5052359;28;20439;-67
2021/01/04 00:34:39;;;;;;;7.80;7.00;;;4.90;99.90;;;;;;5052492;28;20181;-67
2021/01/04 00:37:16;;;;;;;9.13;6.93;;;4.90;99.90;;;;;;5052461;28;20468;-67
2021/01/04 00:40:00;;;;;;;8.53;7.30;;;4.90;99.90;;;;;;5052161;28;20508;-66
2021/01/04 00:42:45;;;;;;;7.40;6.60;;;4.80;99.90;;;;;;5052456;28;20772;-65
2021/01/04 00:45:11;;;;;;;7.00;6.30;;;4.80;99.90;;;;;;5052362;28;20427;-66
2021/01/04 00:47:55;;;;;;;7.87;6.90;;;4.70;99.90;;;;;;5052212;28;20420;-66
2021/01/04 00:50:45;;;;;;;8.10;7.30;;;4.70;99.90;;;;;;5052343;28;20189;-66
2021/01/04 00:53:24;;;;;;;7.67;6.97;;;4.70;99.90;;;;;;5054779;28;20873;-66
2021/01/04 00:56:07;;;;;;;7.40;6.70;;;4.70;99.90;;;;;;5070375;28;20426;-66
2021/01/04 00:58:50;;;;;;;8.13;6.80;;;4.60;99.90;;;;;;5070396;28;20491;-66
2021/01/04 01:01:24;;;;;;;8.03;6.97;;;4.60;99.90;;;;;;5071202;28;20427;-66
2021/01/04 01:03:49;;;;;;;8.27;7.20;;;4.60;99.90;;;;;;5069814;28;20910;-67
2021/01/04 01:06:28;;;;;;;10.37;7.67;;;4.60;99.90;;;;;;5071478;28;20429;-66
2021/01/04 01:08:56;;;;;;;6.97;6.30;;;4.60;99.90;;;;;;5070344;28;20188;-66
2021/01/04 01:11:36;;;;;;;7.50;6.70;;;4.60;99.90;;;;;;5071583;28;20431;-66
2021/01/04 01:14:18;;;;;;;8.33;7.50;;;4.60;99.90;;;;;;5070505;28;20424;-66
2021/01/04 01:16:52;;;;;;;9.23;6.67;;;4.60;99.90;;;;;;5071388;28;20881;-65
2021/01/04 01:19:34;;;;;;;6.50;5.80;;;4.60;99.90;;;;;;5071577;28;20428;-67
2021/01/04 01:22:00;;;;;;;7.80;7.00;;;4.50;99.90;;;;;;5072037;28;20467;-66
2021/01/04 01:24:26;;;;;;;21.80;6.93;;;4.50;99.90;;;;;;5072000;28;20432;-68
2021/01/04 01:27:14;;;;;;;8.07;6.77;;;4.50;99.90;;;;;;5071865;28;20460;-67
2021/01/04 01:29:42;;;;;;;9.03;6.57;;;4.60;99.90;;;;;;5072047;28;20420;-67
2021/01/04 01:32:39;;;;;;;7.37;6.53;;;4.60;99.90;;;;;;5072005;28;20413;-67
2021/01/04 01:35:33;;;;;;;9.33;7.40;;;4.70;99.90;;;;;;5072034;28;20416;-68
2021/01/04 01:38:29;;;;;;;7.90;6.70;;;4.60;99.90;;;;;;5071917;28;20476;-66
2021/01/04 01:41:26;;;;;;;7.70;6.90;;;4.60;99.90;;;;;;5071884;28;20412;-66
2021/01/04 01:44:27;;;;;;;7.33;6.63;;;4.60;99.90;;;;;;5071694;28;20435;-65
2021/01/04 01:47:03;;;;;;;7.83;6.40;;;4.50;99.90;;;;;;5071843;28;20411;-65
2021/01/04 01:49:41;;;;;;;7.70;6.63;;;4.70;99.90;;;;;;5071534;28;20422;-68
2021/01/04 01:52:39;;;;;;;6.43;5.60;;;4.70;99.90;;;;;;5071786;28;20426;-68
2021/01/04 01:55:27;;;;;;;7.53;6.60;;;4.60;99.90;;;;;;5071863;28;20425;-68
2021/01/04 01:58:17;;;;;;;6.10;5.50;;;4.60;99.90;;;;;;5071534;28;20533;-68
2021/01/04 02:01:02;;;;;;;7.80;6.30;;;4.60;99.90;;;;;;5071561;28;20403;-68
2021/01/04 02:03:42;;;;;;;6.70;5.90;;;4.50;99.90;;;;;;5071486;28;20501;-68
2021/01/04 02:06:25;;;;;;;7.37;6.57;;;4.50;99.90;;;;;;5076026;28;20778;-68
2021/01/04 06:32:28;;;;;;;8.03;7.23;;;4.70;99.90;;;;;;5196700;23;20533;-68
2021/01/04 06:35:01;;;;;;;9.67;7.07;;;4.70;99.90;;;;;;4957679;29;20477;-67
2021/01/04 06:37:29;;;;;;;8.87;6.83;;;4.70;99.90;;;;;;4957386;29;20461;-68
2021/01/04 06:40:09;;;;;;;10.00;7.00;;;4.70;99.90;;;;;;4975542;23;20493;-68
2021/01/04 06:42:44;;;;;;;6.80;6.10;;;4.60;99.90;;;;;;4957378;29;20558;-68
2021/01/04 06:45:25;;;;;;;8.63;6.63;;;4.70;99.90;;;;;;4957514;29;20898;-68
2021/01/04 06:48:05;;;;;;;9.60;7.40;;;4.60;99.90;;;;;;4957474;29;20429;-68
2021/01/04 06:50:42;;;;;;;8.60;7.40;;;4.60;99.90;;;;;;4956908;28;20428;-68
2021/01/04 06:53:33;;;;;;;9.03;7.23;;;4.60;99.90;;;;;;4957293;29;20971;-67
2021/01/04 06:56:17;;;;;;;7.37;6.47;;;4.60;99.90;;;;;;4955605;28;20952;-70
2021/01/04 06:58:58;;;;;;;7.70;6.40;;;4.80;99.90;;;;;;4957027;29;20570;-70
2021/01/04 07:02:02;;;;;;;7.20;6.47;;;4.80;99.90;;;;;;4957068;29;20909;-69
2021/01/04 07:04:34;;;;;;;7.30;6.50;;;4.80;99.90;;;;;;4957030;29;20430;-69
2021/01/04 07:07:27;;;;;;;8.20;7.20;;;4.70;99.90;;;;;;4957095;29;20480;-69
2021/01/04 07:10:15;;;;;;;12.40;7.30;;;4.60;99.90;;;;;;4956930;29;20437;-68
2021/01/04 07:13:05;;;;;;;9.93;6.30;;;4.70;99.90;;;;;;4956909;29;20510;-68
2021/01/04 07:15:31;;;;;;;8.23;6.73;;;4.70;99.90;;;;;;4955927;29;20435;-67
2021/01/04 07:18:15;;;;;;;10.07;7.60;;;4.80;99.90;;;;;;4952968;29;20517;-67
2021/01/04 07:20:48;;;;;;;7.53;6.73;;;4.90;99.90;;;;;;4936673;29;20436;-66
2021/01/04 07:23:33;;;;;;;9.97;6.80;;;4.90;99.90;;;;;;4936649;29;20464;-68
2021/01/04 07:26:33;;;;;;;9.48;8.02;;;5.00;99.90;;;;;;4936048;29;20425;-68
2021/01/04 07:29:30;;;;;;;9.53;7.43;;;5.10;99.90;;;;;;4919902;29;20648;-65
2021/01/04 07:32:15;;;;;;;7.90;7.07;;;5.10;99.90;;;;;;4911625;29;20430;-64
2021/01/04 07:34:57;;;;;;;7.40;6.70;;;5.00;99.90;;;;;;4936496;29;20500;-65
2021/01/04 07:37:44;;;;;;;7.97;6.27;;;5.00;99.90;;;;;;4936058;29;20564;-64
2021/01/04 07:40:54;;;;;;;7.73;6.60;;;5.00;99.90;;;;;;4936096;29;20521;-64
2021/01/04 07:43:46;;;;;;;8.07;6.50;;;5.10;99.90;;;;;;4936108;29;20474;-64
2021/01/04 07:46:14;;;;;;;7.37;6.57;;;5.30;99.90;;;;;;4936142;29;20426;-64
2021/01/04 07:49:13;;;;;;;9.10;6.93;;;5.20;99.90;;;;;;4936114;29;20458;-65
2021/01/04 07:51:56;;;;;;;7.57;5.67;;;5.20;99.90;;;;;;4936008;29;20453;-65
2021/01/04 07:54:53;;;;;;;7.20;6.50;;;5.10;99.90;;;;;;4936063;29;20434;-66
2021/01/04 07:57:30;;;;;;;7.43;5.93;;;5.10;99.90;;;;;;4935997;29;20631;-65
2021/01/04 08:00:04;;;;;;;9.40;7.20;;;5.10;99.90;;;;;;4935995;29;20592;-70
2021/01/04 08:03:03;;;;;;;7.73;6.60;;;5.10;99.90;;;;;;4934877;29;20429;-65
2021/01/04 08:05:49;;;;;;;8.60;6.53;;;5.10;99.90;;;;;;4939634;29;20445;-65
2021/01/04 08:08:33;;;;;;;9.00;5.93;;;5.00;99.90;;;;;;4945884;29;20830;-65
2021/01/04 08:11:16;;;;;;;8.50;6.80;;;5.10;99.90;;;;;;4945727;29;20508;-65
2021/01/04 08:14:15;;;;;;;8.03;7.23;;;5.10;99.90;;;;;;4944855;29;20430;-65
2021/01/04 08:16:53;;;;;;;8.87;7.30;;;5.10;99.90;;;;;;4944586;29;20455;-65
2021/01/04 08:19:21;;;;;;;10.30;7.70;;;5.10;99.90;;;;;;4944172;29;20518;-65
2021/01/04 08:21:53;;;;;;;9.47;8.47;;;5.00;99.90;;;;;;4946546;28;20491;-65
2021/01/04 08:24:29;;;;;;;10.10;7.80;;;5.10;99.90;;;;;;4949580;28;20427;-65
2021/01/04 08:27:12;;;;;;;10.83;7.50;;;5.10;99.90;;;;;;4948713;28;20830;-65
2021/01/04 08:30:00;;;;;;;8.73;6.70;;;5.10;99.90;;;;;;4949179;28;20520;-65
2021/01/04 08:32:59;;;;;;;12.77;7.97;;;5.10;99.90;;;;;;4936747;29;20813;-66
2021/01/04 08:38:48;;;;;;;8.40;7.00;;;5.20;99.90;;;;;;4936397;29;20829;-69
2021/01/04 08:41:19;;;;;;;11.23;8.10;;;5.10;99.90;;;;;;4936772;29;20488;-66
2021/01/04 08:47:17;;;;;;;8.43;7.00;;;5.10;99.90;;;;;;4936367;29;20413;-66
2021/01/04 08:49:46;;;;;;;8.67;6.97;;;5.10;99.90;;;;;;4936501;29;20433;-65
2021/01/04 08:52:21;;;;;;;6.97;6.23;;;5.10;99.90;;;;;;4936426;29;20423;-65
2021/01/04 08:58:25;;;;;;;6.47;5.77;;;5.30;99.90;;;;;;4936168;29;20474;-66
2021/01/04 09:04:31;;;;;;;7.53;6.60;;;5.40;99.90;;;;;;4936108;29;20504;-67
2021/01/04 09:07:08;;;;;;;7.70;6.57;;;5.20;99.90;;;;;;4936285;29;20451;-68
2021/01/04 09:09:58;;;;;;;8.43;6.50;;;5.20;99.90;;;;;;4936724;29;20778;-66
2021/01/04 09:12:35;;;;;;;8.63;6.20;;;4.90;99.90;;;;;;4926483;29;20501;-68
2021/01/04 09:15:13;;;;;;;8.50;6.47;;;4.90;99.90;;;;;;4939902;29;20417;-67
2021/01/04 09:18:06;;;;;;;11.70;7.70;;;4.90;99.90;;;;;;4940087;29;20473;-67
2021/01/04 09:20:43;;;;;;;7.00;6.07;;;4.90;99.90;;;;;;4940127;29;20466;-67
2021/01/04 09:23:22;;;;;;;7.70;6.27;;;4.80;99.90;;;;;;4940036;29;20473;-66
2021/01/04 09:29:17;;;;;;;7.77;6.27;;;4.90;99.90;;;;;;4939885;29;20938;-65
2021/01/04 09:35:07;;;;;;;7.90;6.00;;;4.90;99.90;;;;;;4939769;29;20453;-67
2021/01/04 09:37:35;;;;;;;8.80;6.30;;;5.00;99.90;;;;;;4939416;29;20978;-67
2021/01/04 09:40:06;;;;;;;6.87;5.67;;;5.20;99.90;;;;;;4939473;29;20528;-67
2021/01/04 09:46:09;;;;;;;6.97;5.97;;;5.10;99.90;;;;;;4939605;29;20416;-67
2021/01/04 09:48:42;;;;;;;8.93;6.50;;;5.20;99.90;;;;;;4939794;29;20431;-67
2021/01/04 09:51:09;;;;;;;11.68;8.10;;;5.30;99.90;;;;;;4938798;29;20540;-67
2021/01/04 09:53:37;;;;;;;9.13;7.23;;;5.20;99.90;;;;;;4939682;29;20269;-69
2021/01/04 09:56:07;;;;;;;7.77;6.23;;;5.10;99.90;;;;;;4939691;29;20445;-68
2021/01/04 09:58:32;;;;;;;9.73;7.23;;;5.10;99.90;;;;;;4939516;29;20604;-67
2021/01/04 10:01:11;;;;;;;9.60;7.37;;;5.10;99.90;;;;;;4939197;29;20945;-67
2021/01/04 10:03:38;;;;;;;9.43;6.60;;;5.10;99.90;;;;;;4939437;29;20173;-67
2021/01/04 10:06:09;;;;;;;10.73;7.90;;;5.10;99.90;;;;;;4939431;29;20429;-68
2021/01/04 10:08:37;;;;;;;9.47;7.37;;;5.10;99.90;;;;;;4939416;29;20795;-67
2021/01/04 10:11:09;;;;;;;8.80;6.30;;;5.10;99.90;;;;;;4939365;29;20435;-69
2021/01/04 10:13:38;;;;;;;8.00;6.80;;;5.10;99.90;;;;;;4939109;29;20432;-67
2021/01/04 10:16:16;;;;;;;9.80;7.87;;;5.10;99.90;;;;;;4938984;29;20424;-67
2021/01/04 10:18:47;;;;;;;9.47;7.27;;;5.10;99.90;;;;;;4939104;29;20494;-67
2021/01/04 10:24:49;;;;;;;12.00;8.87;;;5.00;99.90;;;;;;4938442;29;20459;-68
2021/01/04 10:27:17;;;;;;;11.90;7.93;;;5.00;99.90;;;;;;4939129;29;20436;-68
2021/01/04 10:33:27;;;;;;;13.33;8.60;;;5.10;99.90;;;;;;4938434;29;20881;-67
2021/01/04 10:36:21;;;;;;;11.70;7.40;;;5.00;99.90;;;;;;4938943;29;20851;-67
2021/01/04 10:38:56;;;;;;;12.30;8.57;;;5.10;99.90;;;;;;4936314;29;20893;-67
2021/01/04 10:41:30;;;;;;;12.70;8.60;;;5.10;99.90;;;;;;4938312;29;20556;-67
2021/01/04 10:47:38;;;;;;;9.33;7.57;;;5.10;99.90;;;;;;4938462;29;20449;-67
2021/01/04 10:53:30;;;;;;;10.50;7.73;;;5.30;99.90;;;;;;4938367;29;20421;-66
2021/01/04 10:56:13;;;;;;;15.63;9.80;;;5.10;99.90;;;;;;4937990;29;20419;-66
2021/01/04 10:58:48;;;;;;;10.33;8.37;;;5.00;99.90;;;;;;4937999;29;20465;-66
2021/01/04 11:01:21;;;;;;;13.53;8.53;;;5.00;99.90;;;;;;4938402;29;20421;-66
2021/01/04 11:03:53;;;;;;;14.40;9.77;;;5.00;99.90;;;;;;4938384;29;20418;-66
2021/01/04 11:06:24;;;;;;;11.27;8.20;;;5.30;99.90;;;;;;4938068;29;20414;-66
2021/01/04 11:08:50;;;;;;;11.00;8.33;;;5.20;99.90;;;;;;4938004;29;20427;-66
2021/01/04 11:11:36;;;;;;;15.03;9.00;;;5.30;99.90;;;;;;4938033;29;20434;-66
2021/01/04 11:14:19;;;;;;;11.90;9.40;;;5.20;99.90;;;;;;4938283;29;20228;-67
2021/01/04 11:16:53;;;;;;;11.13;9.27;;;5.10;99.90;;;;;;4937799;29;20418;-66
2021/01/04 11:19:26;;;;;;;13.10;9.03;;;5.10;99.90;;;;;;4938199;29;20936;-66
2021/01/04 11:21:52;;;;;;;10.53;8.30;;;5.10;99.90;;;;;;4938107;29;20422;-66
2021/01/04 11:24:18;;;;;;;14.30;9.60;;;5.20;99.90;;;;;;4938062;29;20793;-66
2021/01/04 11:26:43;;;;;;;11.10;9.30;;;5.30;99.90;;;;;;4938046;29;20293;-66
2021/01/04 11:29:09;;;;;;;10.40;8.67;;;5.30;99.90;;;;;;4937701;29;20174;-66
2021/01/04 11:31:38;;;;;;;15.17;9.97;;;5.30;99.90;;;;;;4937866;29;20210;-66
2021/01/04 11:34:04;;;;;;;10.80;8.87;;;5.20;99.90;;;;;;4937878;29;20422;-66
2021/01/04 11:36:30;;;;;;;11.13;9.30;;;5.20;99.90;;;;;;4937083;29;20520;-66
2021/01/04 11:38:55;;;;;;;20.93;9.73;;;5.30;99.90;;;;;;4937390;29;20478;-66
2021/01/04 11:41:21;;;;;;;14.57;10.30;;;5.30;99.90;;;;;;4937385;29;20737;-66
2021/01/04 11:43:48;;;;;;;11.17;9.90;;;5.40;99.90;;;;;;4937649;29;20214;-66
2021/01/04 11:46:18;;;;;;;14.70;9.90;;;5.40;99.90;;;;;;4937624;29;20450;-66
2021/01/04 11:48:45;;;;;;;15.13;11.17;;;5.40;99.90;;;;;;4937297;29;20403;-66
2021/01/04 11:51:20;;;;;;;12.63;9.83;;;5.40;99.90;;;;;;4937167;29;20427;-66
2021/01/04 11:53:50;;;;;;;15.00;9.90;;;5.40;99.90;;;;;;4937520;29;20424;-66
2021/01/04 11:59:37;;;;;;;13.67;9.50;;;5.40;99.90;;;;;;4937123;29;20790;-67
2021/01/04 12:02:03;;;;;;;13.40;9.63;;;5.30;99.90;;;;;;4937201;29;20433;-66
2021/01/04 12:04:29;;;;;;;15.13;9.77;;;5.30;99.90;;;;;;4937233;29;20600;-64
2021/01/04 12:06:54;;;;;;;14.93;10.40;;;5.40;99.90;;;;;;4937190;29;20458;-66
2021/01/04 12:12:42;;;;;;;14.37;9.67;;;5.40;99.90;;;;;;4936881;29;20680;-66
2021/01/04 12:15:08;;;;;;;13.70;10.97;;;5.40;99.90;;;;;;4937116;29;20906;-67
2021/01/04 12:17:34;;;;;;;18.13;10.83;;;5.40;99.90;;;;;;4937729;29;20970;-66
2021/01/04 12:19:59;;;;;;;15.97;11.40;;;5.40;99.90;;;;;;4936991;29;20458;-66
2021/01/04 12:22:25;;;;;;;13.90;11.07;;;5.30;99.90;;;;;;4937022;29;20193;-66
2021/01/04 12:24:51;;;;;;;14.03;10.20;;;5.50;99.90;;;;;;4936931;29;20181;-66
2021/01/04 12:27:17;;;;;;;13.90;10.40;;;5.50;99.90;;;;;;4936938;29;20636;-66
2021/01/04 12:29:47;;;;;;;13.23;11.70;;;5.50;99.90;;;;;;4936953;29;20230;-65
2021/01/04 12:32:15;;;;;;;12.80;10.70;;;5.60;99.90;;;;;;4936586;29;20434;-66
2021/01/04 12:34:41;;;;;;;19.20;11.07;;;5.50;99.90;;;;;;4936744;29;20436;-66
2021/01/04 12:37:07;;;;;;;14.90;10.90;;;5.30;99.90;;;;;;4936618;29;20525;-65
2021/01/04 12:39:33;;;;;;;14.97;10.57;;;5.30;99.90;;;;;;4936704;29;20809;-65
2021/01/04 12:41:58;;;;;;;12.53;9.43;;;5.40;99.90;;;;;;4936783;29;20905;-65
2021/01/04 12:44:24;;;;;;;16.30;10.93;;;5.30;99.90;;;;;;4936608;29;20273;-66
2021/01/04 12:46:51;;;;;;;12.60;9.27;;;5.40;99.90;;;;;;4936426;29;20641;-65
2021/01/04 12:52:38;;;;;;;13.50;10.23;;;5.50;99.90;;;;;;4936342;29;20415;-64
2021/01/04 12:55:05;;;;;;;13.03;9.60;;;5.50;99.90;;;;;;4936516;29;20928;-65
2021/01/04 12:57:31;;;;;;;14.43;10.90;;;5.60;99.90;;;;;;4936132;29;20289;-66
2021/01/04 13:00:10;;;;;;;13.97;9.73;;;5.50;99.90;;;;;;5089625;27;20912;-62
2021/01/04 13:02:35;;;;;;;13.60;10.03;;;5.60;99.90;;;;;;5070688;28;20429;-62
2021/01/04 13:05:01;;;;;;;14.30;10.33;;;5.60;99.90;;;;;;5069855;28;20432;-65
2021/01/04 13:07:28;;;;;;;15.70;11.30;;;5.60;99.90;;;;;;5070316;28;20421;-64
2021/01/04 13:09:53;;;;;;;19.20;12.57;;;5.50;99.90;;;;;;5069413;28;20591;-64
2021/01/04 13:12:19;;;;;;;15.27;10.27;;;5.50;99.90;;;;;;5081323;28;20460;-65
2021/01/04 13:14:49;;;;;;;15.17;11.27;;;5.40;99.90;;;;;;5073429;28;20205;-68
2021/01/04 13:17:15;;;;;;;13.57;10.73;;;5.40;99.90;;;;;;5080065;28;20272;-65
2021/01/04 13:19:41;;;;;;;12.40;10.07;;;5.40;99.90;;;;;;5080115;28;20496;-65
2021/01/04 13:22:06;;;;;;;14.10;10.07;;;5.40;99.90;;;;;;5077556;28;20429;-65
2021/01/04 13:24:32;;;;;;;13.00;9.97;;;5.40;99.90;;;;;;5078463;28;20182;-65
2021/01/04 13:26:58;;;;;;;13.53;9.47;;;5.40;99.90;;;;;;5079078;28;20173;-67
2021/01/04 13:29:29;;;;;;;13.17;10.67;;;5.50;99.90;;;;;;5076445;28;20633;-66
2021/01/04 13:32:00;;;;;;;15.63;10.53;;;5.50;99.90;;;;;;5077965;28;20470;-67
2021/01/04 13:34:26;;;;;;;12.13;9.30;;;5.60;99.90;;;;;;5076729;28;20561;-66
2021/01/04 13:36:54;;;;;;;13.73;10.00;;;5.60;99.90;;;;;;5077185;28;20520;-66
2021/01/04 13:39:19;;;;;;;12.90;9.50;;;5.60;99.90;;;;;;5079031;28;20351;-67
2021/01/04 13:41:49;;;;;;;12.93;10.70;;;5.60;99.90;;;;;;5076606;28;20514;-65
2021/01/04 13:44:15;;;;;;;12.20;9.10;;;5.60;99.90;;;;;;5083354;28;20186;-66
2021/01/04 13:46:40;;;;;;;11.33;9.10;;;5.60;99.90;;;;;;5086901;28;20553;-65
2021/01/04 13:49:06;;;;;;;13.03;9.83;;;5.60;99.90;;;;;;5078796;28;20542;-65
2021/01/04 13:51:31;;;;;;;11.53;8.33;;;5.50;99.90;;;;;;5076810;28;20181;-64
2021/01/04 13:53:57;;;;;;;13.07;9.80;;;5.70;99.90;;;;;;5081110;28;20658;-66
2021/01/04 13:56:23;;;;;;;16.63;10.40;;;5.70;99.90;;;;;;5079193;28;20174;-64
2021/01/04 13:58:48;;;;;;;15.10;10.00;;;5.60;99.90;;;;;;5076586;28;20635;-64
2021/01/04 14:01:21;;;;;;;16.57;10.30;;;5.50;99.90;;;;;;5076047;28;20174;-64
2021/01/04 14:03:46;;;;;;;15.07;10.77;;;5.50;99.90;;;;;;5076078;28;20207;-64
2021/01/04 14:06:12;;;;;;;19.20;11.03;;;5.40;99.90;;;;;;5082404;28;20420;-64
2021/01/04 14:08:37;;;;;;;13.03;8.70;;;5.40;99.90;;;;;;5082804;28;20173;-65
2021/01/04 14:11:03;;;;;;;16.30;11.60;;;5.50;99.90;;;;;;5067441;28;20173;-64
2021/01/04 14:13:28;;;;;;;16.40;11.63;;;5.50;99.90;;;;;;5066422;28;20240;-64
2021/01/04 14:15:54;;;;;;;14.30;10.80;;;5.50;99.90;;;;;;5064824;28;20550;-64
2021/01/04 14:18:20;;;;;;;13.47;11.57;;;5.50;99.90;;;;;;5059649;28;20202;-64
2021/01/04 14:20:45;;;;;;;16.17;12.57;;;5.50;99.90;;;;;;5055786;28;20177;-64
2021/01/04 14:23:13;;;;;;;14.77;11.37;;;5.50;99.90;;;;;;5055957;28;20182;-64
2021/01/04 14:25:39;;;;;;;15.47;12.23;;;5.50;99.90;;;;;;5055544;28;20182;-65
2021/01/04 14:28:04;;;;;;;13.60;11.40;;;5.50;99.90;;;;;;5055566;28;20448;-65
2021/01/04 14:30:30;;;;;;;13.50;10.57;;;5.50;99.90;;;;;;5055474;28;20996;-64
2021/01/04 14:32:56;;;;;;;14.57;11.43;;;5.60;99.90;;;;;;5055269;28;20206;-64
2021/01/04 14:35:21;;;;;;;12.60;10.13;;;5.60;99.90;;;;;;5055153;28;20224;-65
2021/01/04 14:37:47;;;;;;;12.87;10.73;;;5.40;99.90;;;;;;5055365;28;20514;-65
2021/01/04 14:40:12;;;;;;;14.40;12.10;;;5.50;99.90;;;;;;5055244;28;20182;-65
2021/01/04 14:42:38;;;;;;;17.20;11.10;;;5.40;99.90;;;;;;5054248;28;20578;-65
2021/01/04 14:45:08;;;;;;;15.47;10.63;;;5.50;99.90;;;;;;5054232;28;20203;-65
2021/01/04 14:47:35;;;;;;;14.10;11.20;;;5.40;99.90;;;;;;5056015;28;20417;-65
2021/01/04 14:50:02;;;;;;;13.77;10.87;;;5.40;99.90;;;;;;5054833;28;20422;-66
2021/01/04 14:52:28;;;;;;;13.90;11.00;;;5.50;99.90;;;;;;5054674;28;20425;-66
2021/01/04 14:54:53;;;;;;;10.93;9.83;;;5.50;99.90;;;;;;5056752;28;20469;-66
2021/01/04 14:57:20;;;;;;;13.63;11.00;;;5.50;99.90;;;;;;5058305;28;20641;-70
2021/01/04 14:59:48;;;;;;;16.57;12.00;;;5.80;99.90;;;;;;5054723;28;20315;-69
2021/01/04 15:02:15;;;;;;;12.57;10.30;;;5.70;99.90;;;;;;5054929;28;20516;-68
2021/01/04 15:04:41;;;;;;;17.30;12.00;;;5.50;99.90;;;;;;5058762;28;21031;-68
2021/01/04 15:07:07;;;;;;;13.40;11.17;;;5.50;99.90;;;;;;5066019;28;20431;-68
2021/01/04 15:09:32;;;;;;;13.50;11.63;;;5.40;99.90;;;;;;5059539;28;20192;-68
2021/01/04 15:11:58;;;;;;;11.57;9.80;;;5.40;99.90;;;;;;5071152;28;20462;-68
2021/01/04 15:14:27;;;;;;;10.40;9.30;;;5.40;99.90;;;;;;5060005;28;20207;-68
2021/01/04 15:16:53;;;;;;;13.43;9.10;;;5.40;99.90;;;;;;5064883;28;20185;-68
2021/01/04 15:19:21;;;;;;;10.60;9.50;;;5.40;99.90;;;;;;5067328;28;20471;-68
2021/01/04 15:21:47;;;;;;;12.47;9.97;;;5.40;99.90;;;;;;5056852;28;20542;-68
2021/01/04 15:24:13;;;;;;;8.83;7.93;;;5.40;99.90;;;;;;5070069;28;20436;-68
2021/01/04 15:26:39;;;;;;;12.27;10.13;;;5.40;99.90;;;;;;5057633;28;20430;-68
2021/01/04 15:29:05;;;;;;;9.80;8.77;;;5.40;99.90;;;;;;5056763;28;20176;-68
2021/01/04 15:31:31;;;;;;;13.00;10.20;;;5.40;99.90;;;;;;5053679;28;20925;-68
2021/01/04 15:33:57;;;;;;;9.57;8.53;;;5.40;99.90;;;;;;5062737;28;20539;-68
2021/01/04 15:36:23;;;;;;;9.80;8.10;;;5.40;99.90;;;;;;5057445;28;20502;-68
2021/01/04 15:38:48;;;;;;;11.43;8.30;;;5.40;99.90;;;;;;5069059;28;20468;-68
2021/01/04 15:41:15;;;;;;;9.00;8.00;;;5.40;99.90;;;;;;5062306;28;20177;-68
2021/01/04 15:43:42;;;;;;;10.23;8.60;;;5.40;99.90;;;;;;5061911;28;20178;-68
2021/01/04 15:46:09;;;;;;;11.00;8.90;;;5.50;99.90;;;;;;5069615;28;20460;-67
2021/01/04 15:48:35;;;;;;;9.20;8.30;;;5.50;99.90;;;;;;5057056;28;20531;-67
2021/01/04 15:51:00;;;;;;;12.63;9.67;;;5.40;99.90;;;;;;5067359;28;20516;-67
2021/01/04 15:53:27;;;;;;;12.50;10.17;;;5.30;99.90;;;;;;5063714;28;20522;-67
2021/01/04 15:55:54;;;;;;;11.20;9.27;;;5.30;99.90;;;;;;5059919;28;20187;-68
2021/01/04 15:58:20;;;;;;;11.53;9.57;;;5.20;99.90;;;;;;5069686;28;20537;-67
2021/01/04 16:00:46;;;;;;;10.43;9.37;;;5.20;99.90;;;;;;5057982;28;20523;-65
2021/01/04 16:03:12;;;;;;;14.10;8.70;;;5.30;99.90;;;;;;5065715;28;20520;-66
2021/01/04 16:05:37;;;;;;;8.57;7.77;;;5.30;99.90;;;;;;5064991;28;20207;-67
2021/01/04 16:08:03;;;;;;;10.00;8.67;;;5.30;99.90;;;;;;5058047;28;20903;-67
2021/01/04 16:10:29;;;;;;;10.03;8.50;;;5.30;99.90;;;;;;5069613;28;20711;-68
2021/01/04 16:12:54;;;;;;;11.37;8.60;;;5.30;99.90;;;;;;5058658;28;20207;-66
2021/01/04 16:15:21;;;;;;;9.50;8.43;;;5.30;99.90;;;;;;5064263;28;20549;-66
2021/01/04 16:17:46;;;;;;;10.57;9.48;;;5.30;99.90;;;;;;5065074;28;20889;-67
2021/01/04 16:20:14;;;;;;;9.07;7.80;;;5.30;99.90;;;;;;5056901;28;20198;-67
2021/01/04 16:22:39;;;;;;;9.47;7.13;;;5.40;99.90;;;;;;5053015;28;20227;-68
2021/01/04 16:25:12;;;;;;;8.07;6.87;;;5.40;99.90;;;;;;5052871;28;20475;-69
2021/01/04 16:27:38;;;;;;;10.37;8.37;;;5.30;99.90;;;;;;5052899;28;20183;-69
2021/01/04 16:30:05;;;;;;;11.87;8.53;;;5.20;99.90;;;;;;5052808;28;20518;-69
2021/01/04 16:32:31;;;;;;;10.90;8.90;;;5.20;99.90;;;;;;5051485;28;20176;-69
2021/01/04 16:34:58;;;;;;;12.73;10.27;;;5.20;99.90;;;;;;5051661;28;20854;-69
2021/01/04 16:37:24;;;;;;;15.07;9.97;;;5.20;99.90;;;;;;5051148;28;20480;-69
2021/01/04 16:39:49;;;;;;;12.47;11.17;;;5.20;99.90;;;;;;5051951;28;20511;-70
2021/01/04 16:42:19;;;;;;;11.43;9.67;;;5.20;99.90;;;;;;5051718;28;20433;-70
2021/01/04 16:44:45;;;;;;;12.50;9.20;;;5.20;99.90;;;;;;5051718;28;20181;-69
2021/01/04 16:47:12;;;;;;;12.10;9.23;;;5.20;99.90;;;;;;5051718;28;20461;-67
2021/01/04 16:49:37;;;;;;;11.07;9.87;;;5.20;99.90;;;;;;5048828;28;20437;-68
2021/01/04 16:52:06;;;;;;;13.83;9.90;;;5.20;99.90;;;;;;5051709;28;20435;-67
2021/01/04 16:54:32;;;;;;;10.10;8.97;;;5.20;99.90;;;;;;5051693;28;20529;-68
2021/01/04 16:56:58;;;;;;;12.37;9.57;;;5.20;99.90;;;;;;5049113;28;20564;-67
2021/01/04 16:59:23;;;;;;;12.47;10.33;;;5.10;99.90;;;;;;5051241;28;20494;-68
2021/01/04 17:01:50;;;;;;;12.27;9.57;;;5.20;99.90;;;;;;5051319;28;20228;-68
2021/01/04 17:04:15;;;;;;;11.30;9.70;;;5.20;99.90;;;;;;5051710;28;20184;-68
2021/01/04 17:06:41;;;;;;;12.33;9.73;;;5.10;99.90;;;;;;5051526;28;20841;-68
2021/01/04 17:09:11;;;;;;;14.07;10.40;;;5.20;99.90;;;;;;5051951;28;20186;-66
2021/01/04 17:11:39;;;;;;;10.27;9.27;;;5.20;99.90;;;;;;5052031;28;20201;-69
2021/01/04 17:14:06;;;;;;;11.43;10.20;;;5.10;99.90;;;;;;5051971;28;20444;-67
2021/01/04 17:16:31;;;;;;;9.10;8.20;;;5.20;99.90;;;;;;5051397;28;20440;-69
2021/01/04 17:19:01;;;;;;;9.50;8.60;;;5.30;99.90;;;;;;5051207;28;20484;-69
2021/01/04 17:21:30;;;;;;;10.27;8.50;;;5.30;99.90;;;;;;5051817;28;20191;-70
2021/01/04 17:23:57;;;;;;;9.83;8.53;;;5.30;99.90;;;;;;5051403;28;20440;-69
2021/01/04 17:26:24;;;;;;;13.00;10.17;;;5.30;99.90;;;;;;5051718;28;20428;-69
2021/01/04 17:28:51;;;;;;;15.30;9.93;;;5.20;99.90;;;;;;5051674;28;20916;-69
2021/01/04 17:31:20;;;;;;;10.70;8.10;;;5.20;99.90;;;;;;5051122;28;20428;-69
2021/01/04 17:33:46;;;;;;;11.13;9.77;;;5.20;99.90;;;;;;5051171;28;20433;-68
2021/01/04 17:36:12;;;;;;;12.83;9.60;;;5.20;99.90;;;;;;5051583;28;20434;-69
2021/01/04 17:38:38;;;;;;;10.20;9.20;;;5.10;99.90;;;;;;5051526;28;20848;-70
2021/01/04 17:41:06;;;;;;;10.70;9.57;;;5.10;99.90;;;;;;5051532;28;20832;-69
2021/01/04 17:43:31;;;;;;;15.20;12.70;;;5.10;99.90;;;;;;5051587;28;20433;-69
2021/01/04 17:45:58;;;;;;;18.23;14.20;;;5.20;99.90;;;;;;5053651;28;20857;-68
2021/01/04 17:48:24;;;;;;;11.40;9.33;;;5.10;99.90;;;;;;5053924;28;20211;-69
2021/01/04 17:50:49;;;;;;;9.33;7.80;;;5.20;99.90;;;;;;5053921;28;20521;-66
2021/01/04 17:53:15;;;;;;;8.70;7.80;;;5.30;99.90;;;;;;5051210;28;20983;-67
2021/01/04 17:55:41;;;;;;;8.13;7.30;;;5.20;99.90;;;;;;5054542;28;20182;-67
2021/01/04 17:58:06;;;;;;;10.60;7.70;;;5.10;99.90;;;;;;5054423;28;20580;-67
2021/01/04 18:00:32;;;;;;;9.30;6.53;;;5.20;99.90;;;;;;5054711;28;20224;-68
2021/01/04 18:02:59;;;;;;;9.80;8.00;;;5.10;99.90;;;;;;5054810;28;20325;-68
2021/01/04 18:05:24;;;;;;;9.90;7.70;;;5.10;99.90;;;;;;5052079;28;20179;-68
2021/01/04 18:07:52;;;;;;;7.67;6.40;;;5.10;99.90;;;;;;5054733;28;20996;-69
2021/01/04 18:10:18;;;;;;;7.17;5.90;;;5.20;99.90;;;;;;5054453;28;20801;-68
2021/01/04 18:12:44;;;;;;;9.13;6.87;;;5.20;99.90;;;;;;5054635;28;20432;-68
2021/01/04 18:15:10;;;;;;;6.60;6.00;;;5.30;99.90;;;;;;5054496;28;20958;-68
2021/01/04 18:17:36;;;;;;;6.83;6.20;;;5.10;99.90;;;;;;5054222;28;20317;-68
2021/01/04 18:20:04;;;;;;;8.37;7.50;;;5.10;99.90;;;;;;5054876;28;21018;-69
2021/01/04 18:22:30;;;;;;;8.23;7.03;;;5.10;99.90;;;;;;5054803;28;20177;-67
2021/01/04 18:24:55;;;;;;;9.13;7.20;;;5.10;99.90;;;;;;5054772;28;20436;-68